createdAt,value
2018-03-11T00:01:36.123Z,94.80
2018-03-11T00:04:02.083Z,94.70
2018-03-11T00:06:28.096Z,94.70
2018-03-11T00:08:54.820Z,94.30
2018-03-11T00:11:20.774Z,94.30
2018-03-11T00:13:46.717Z,94.00
2018-03-11T00:16:12.667Z,94.00
2018-03-11T00:18:38.612Z,93.90
2018-03-11T00:21:05.315Z,93.60
2018-03-11T00:23:31.272Z,93.60
2018-03-11T00:25:57.252Z,93.50
2018-03-11T00:28:23.212Z,93.90
2018-03-11T00:30:49.163Z,94.40
2018-03-11T00:33:15.119Z,94.60
2018-03-11T00:35:41.063Z,94.80
2018-03-11T00:38:07.025Z,94.80
2018-03-11T00:40:33.719Z,94.90
2018-03-11T00:42:59.684Z,94.90
2018-03-11T00:45:26.411Z,94.50
2018-03-11T00:47:59.268Z,94.50
2018-03-11T00:50:25.223Z,94.10
2018-03-11T00:52:51.196Z,94.10
2018-03-11T00:55:17.880Z,94.60
2018-03-11T00:57:43.841Z,94.50
2018-03-11T01:00:09.791Z,94.60
2018-03-11T01:02:36.503Z,94.80
2018-03-11T01:05:02.459Z,94.80
2018-03-11T01:07:28.435Z,95.00
2018-03-11T01:09:54.412Z,95.00
2018-03-11T01:12:20.360Z,94.90
2018-03-11T01:14:46.332Z,95.00
2018-03-11T01:17:12.286Z,95.00
2018-03-11T01:19:38.255Z,95.00
2018-03-11T01:22:04.215Z,95.00
2018-03-11T01:24:30.923Z,95.40
2018-03-11T01:26:56.918Z,95.40
2018-03-11T01:29:22.872Z,95.60
2018-03-11T01:31:48.823Z,95.60
2018-03-11T01:34:14.783Z,95.80
2018-03-11T01:36:40.735Z,95.40
2018-03-11T01:39:06.708Z,95.40
2018-03-11T01:41:32.657Z,95.00
2018-03-11T01:43:58.639Z,95.20
2018-03-11T01:46:24.608Z,95.30
2018-03-11T01:48:50.583Z,95.00
2018-03-11T01:51:16.539Z,94.90
2018-03-11T01:53:42.495Z,95.20
2018-03-11T01:56:09.204Z,95.40
2018-03-11T01:58:35.159Z,95.30
2018-03-11T02:01:01.117Z,95.40
2018-03-11T02:03:27.847Z,95.80
2018-03-11T02:05:53.824Z,95.70
2018-03-11T02:08:26.877Z,95.40
2018-03-11T02:10:52.906Z,95.30
2018-03-11T02:13:18.867Z,95.50
2018-03-11T02:15:45.955Z,95.90
2018-03-11T02:18:11.914Z,95.80
2018-03-11T02:20:37.866Z,95.60
2018-03-11T02:23:03.824Z,95.40
2018-03-11T02:25:29.796Z,95.50
2018-03-11T02:27:55.822Z,95.80
2018-03-11T02:30:21.745Z,95.60
2018-03-11T02:32:48.459Z,96.20
2018-03-11T02:35:14.426Z,96.20
2018-03-11T02:37:41.133Z,96.70
2018-03-11T02:40:07.094Z,96.70
2018-03-11T02:42:33.074Z,97.40
2018-03-11T02:44:59.037Z,97.30
2018-03-11T02:47:25.029Z,97.60
2018-03-11T02:49:51.736Z,98.10
2018-03-11T02:52:17.708Z,98.10
2018-03-11T02:54:44.410Z,98.10
2018-03-11T02:57:10.388Z,98.10
2018-03-11T02:59:36.348Z,98.10
2018-03-11T03:02:02.324Z,97.60
2018-03-11T03:04:28.297Z,97.40
2018-03-11T03:06:54.270Z,97.70
2018-03-11T03:09:20.237Z,97.70
2018-03-11T03:11:46.210Z,97.90
2018-03-11T03:14:12.908Z,98.50
2018-03-11T03:16:38.886Z,98.50
2018-03-11T03:19:04.844Z,98.70
2018-03-11T03:21:31.536Z,98.80
2018-03-11T03:23:57.561Z,98.80
2018-03-11T03:26:23.533Z,98.80
2018-03-11T03:28:49.496Z,98.90
2018-03-11T03:31:16.201Z,99.00
2018-03-11T03:33:42.173Z,99.00
2018-03-11T03:36:08.885Z,99.00
2018-03-11T03:38:34.844Z,98.90
2018-03-11T03:41:00.814Z,99.00
2018-03-11T03:43:26.795Z,98.80
2018-03-11T03:45:52.748Z,98.70
2018-03-11T03:48:19.457Z,98.70
2018-03-11T03:50:45.437Z,98.80
2018-03-11T03:53:11.409Z,98.70
2018-03-11T03:55:37.369Z,98.50
2018-03-11T03:58:03.344Z,98.40
2018-03-11T04:00:29.333Z,98.40
2018-03-11T04:02:55.317Z,98.30
2018-03-11T04:05:21.286Z,98.30
2018-03-11T04:07:47.236Z,97.90
2018-03-11T04:10:13.213Z,96.90
2018-03-11T04:12:39.188Z,96.50
2018-03-11T04:15:05.915Z,96.70
2018-03-11T04:17:32.620Z,96.60
2018-03-11T04:19:58.608Z,96.60
2018-03-11T04:22:25.345Z,96.40
2018-03-11T04:24:51.318Z,96.40
2018-03-11T04:27:17.293Z,96.60
2018-03-11T04:29:43.269Z,96.80
2018-03-11T04:32:09.969Z,96.50
2018-03-11T04:34:35.932Z,96.50
2018-03-11T04:37:01.897Z,96.50
2018-03-11T04:39:28.600Z,96.80
2018-03-11T04:41:54.609Z,96.70
2018-03-11T04:44:20.585Z,96.90
2018-03-11T04:46:46.561Z,96.90
2018-03-11T04:49:12.513Z,97.50
2018-03-11T04:51:38.488Z,97.50
2018-03-11T04:54:04.451Z,97.50
2018-03-11T04:56:31.161Z,97.50
2018-03-11T04:59:12.078Z,97.50
2018-03-11T05:01:38.045Z,97.20
2018-03-11T05:04:04.030Z,97.40
2018-03-11T05:06:30.002Z,97.70
2018-03-11T05:08:56.711Z,98.20
2018-03-11T05:11:22.715Z,98.20
2018-03-11T05:13:48.664Z,98.30
2018-03-11T05:16:14.637Z,98.30
2018-03-11T05:18:41.333Z,98.30
2018-03-11T05:21:07.293Z,98.30
2018-03-11T05:23:33.267Z,98.20
2018-03-11T05:25:59.231Z,98.20
2018-03-11T05:28:25.932Z,98.30
2018-03-11T05:30:51.914Z,98.30
2018-03-11T05:33:17.905Z,98.40
2018-03-11T05:35:43.860Z,98.40
2018-03-11T05:38:09.825Z,98.50
2018-03-11T05:40:35.776Z,98.50
2018-03-11T05:43:01.749Z,98.60
2018-03-11T05:45:27.711Z,98.60
2018-03-11T05:47:54.460Z,98.60
2018-03-11T05:50:20.490Z,98.60
2018-03-11T05:52:46.466Z,98.60
2018-03-11T05:55:12.429Z,98.60
2018-03-11T05:57:38.400Z,98.50
2018-03-11T06:00:04.366Z,98.20
2018-03-11T06:02:30.353Z,98.10
2018-03-11T06:04:56.312Z,98.10
2018-03-11T06:07:23.053Z,98.20
2018-03-11T06:09:49.797Z,98.10
2018-03-11T06:12:15.802Z,98.10
2018-03-11T06:14:41.774Z,98.20
2018-03-11T06:17:07.737Z,98.00
2018-03-11T06:19:33.704Z,97.80
2018-03-11T06:21:59.653Z,97.40
2018-03-11T06:24:25.641Z,97.20
2018-03-11T06:26:52.356Z,96.20
2018-03-11T06:29:18.334Z,96.20
2018-03-11T06:31:44.308Z,96.50
2018-03-11T06:34:10.272Z,96.60
2018-03-11T06:36:36.236Z,97.50
2018-03-11T06:39:02.957Z,97.60
2018-03-11T06:41:29.665Z,97.70
2018-03-11T06:43:55.645Z,97.70
2018-03-11T06:46:21.628Z,97.40
2018-03-11T06:48:47.594Z,97.40
2018-03-11T06:51:13.573Z,97.50
2018-03-11T06:53:40.281Z,97.60
2018-03-11T06:56:06.253Z,97.60
2018-03-11T06:58:32.967Z,96.90
2018-03-11T07:00:58.947Z,96.90
2018-03-11T07:03:25.664Z,95.60
2018-03-11T07:05:51.644Z,95.60
2018-03-11T07:08:17.606Z,95.20
2018-03-11T07:10:43.572Z,94.80
2018-03-11T07:13:09.535Z,93.70
2018-03-11T07:15:36.250Z,92.40
2018-03-11T07:18:02.217Z,92.40
2018-03-11T07:20:28.176Z,92.10
2018-03-11T07:22:54.162Z,91.40
2018-03-11T07:25:20.182Z,91.80
2018-03-11T07:27:46.153Z,92.30
2018-03-11T07:30:12.106Z,91.90
2018-03-11T07:32:38.838Z,92.10
2018-03-11T07:35:04.849Z,92.10
2018-03-11T07:37:30.807Z,92.20
2018-03-11T07:39:56.766Z,92.50
2018-03-11T07:42:23.579Z,90.00
2018-03-11T07:44:49.581Z,89.80
2018-03-11T07:47:15.560Z,85.90
2018-03-11T07:49:41.524Z,84.00
2018-03-11T07:52:08.237Z,85.90
2018-03-11T07:54:34.238Z,85.90
2018-03-11T07:57:00.909Z,87.60
2018-03-11T07:59:26.884Z,87.50
2018-03-11T08:01:53.617Z,89.00
2018-03-11T08:04:19.672Z,88.80
2018-03-11T08:06:45.589Z,88.60
2018-03-11T08:09:11.555Z,87.30
2018-03-11T08:11:38.254Z,84.40
2018-03-11T08:14:04.238Z,84.30
2018-03-11T08:16:30.962Z,83.80
2018-03-11T08:18:56.937Z,83.80
2018-03-11T08:21:23.712Z,86.00
2018-03-11T08:23:49.762Z,86.00
2018-03-11T08:26:15.805Z,87.30
2018-03-11T08:28:41.807Z,86.70
2018-03-11T08:31:07.778Z,85.80
2018-03-11T08:33:33.781Z,86.20
2018-03-11T08:36:03.818Z,87.40
2018-03-11T08:38:30.082Z,87.60
2018-03-11T08:40:56.645Z,87.60
2018-03-11T08:43:23.449Z,87.20
2018-03-11T08:45:49.630Z,85.60
2018-03-11T08:48:15.882Z,84.90
2018-03-11T08:50:41.928Z,84.40
2018-03-11T08:53:07.919Z,85.00
2018-03-11T08:55:34.631Z,83.60
2018-03-11T08:58:00.674Z,83.50
2018-03-11T09:00:26.661Z,81.10
2018-03-11T09:02:53.742Z,79.80
2018-03-11T09:05:19.841Z,79.90
2018-03-11T09:07:46.565Z,80.00
2018-03-11T09:10:12.571Z,79.30
2018-03-11T09:12:38.531Z,78.90
2018-03-11T09:15:04.524Z,79.30
2018-03-11T09:17:30.489Z,77.40
2018-03-11T09:19:57.287Z,77.80
2018-03-11T09:22:23.472Z,78.30
2018-03-11T09:24:49.496Z,78.70
2018-03-11T09:27:15.497Z,78.60
2018-03-11T09:29:41.469Z,80.20
2018-03-11T09:32:07.455Z,79.60
2018-03-11T09:34:33.586Z,78.80
2018-03-11T09:36:59.729Z,78.40
2018-03-11T09:39:25.762Z,77.90
2018-03-11T09:41:51.762Z,77.70
2018-03-11T09:44:17.781Z,76.70
2018-03-11T09:46:43.782Z,77.80
2018-03-11T09:49:10.512Z,77.90
2018-03-11T09:51:36.518Z,77.80
2018-03-11T09:54:02.501Z,76.90
2018-03-11T09:56:28.592Z,77.20
2018-03-11T09:58:55.368Z,77.00
2018-03-11T10:01:21.625Z,76.80
2018-03-11T10:03:47.634Z,77.20
2018-03-11T10:06:13.669Z,77.20
2018-03-11T10:08:39.637Z,77.40
2018-03-11T10:11:05.699Z,77.70
2018-03-11T10:13:32.548Z,76.20
2018-03-11T10:15:58.457Z,76.20
2018-03-11T10:18:24.477Z,77.40
2018-03-11T10:20:50.489Z,77.40
2018-03-11T10:23:16.485Z,76.70
2018-03-11T10:25:42.448Z,76.00
2018-03-11T10:28:08.483Z,76.30
2018-03-11T10:30:34.467Z,76.00
2018-03-11T10:33:00.469Z,76.50
2018-03-11T10:35:26.465Z,76.20
2018-03-11T10:37:52.561Z,76.30
2018-03-11T10:40:18.529Z,74.90
2018-03-11T10:42:44.512Z,74.30
2018-03-11T10:45:10.485Z,74.00
2018-03-11T10:47:36.497Z,72.90
2018-03-11T10:52:53.750Z,71.60
2018-03-11T10:55:20.644Z,70.00
2018-03-11T10:57:46.615Z,71.30
2018-03-11T11:00:13.325Z,71.20
2018-03-11T11:02:39.294Z,71.10
2018-03-11T11:05:06.007Z,69.40
2018-03-11T11:07:31.971Z,69.70
2018-03-11T11:09:58.065Z,70.20
2018-03-11T11:12:24.041Z,70.90
2018-03-11T11:14:51.632Z,70.20
2018-03-11T11:17:18.366Z,69.50
2018-03-11T11:19:44.336Z,69.50
2018-03-11T11:22:11.043Z,68.30
2018-03-11T11:24:37.000Z,68.30
2018-03-11T11:27:02.985Z,69.00
2018-03-11T11:29:28.960Z,68.00
2018-03-11T11:31:55.013Z,68.00
2018-03-11T11:34:21.013Z,68.80
2018-03-11T11:36:47.045Z,68.50
2018-03-11T11:39:13.092Z,70.20
2018-03-11T11:41:39.053Z,70.80
2018-03-11T11:44:05.015Z,69.60
2018-03-11T11:46:31.765Z,71.60
2018-03-11T11:48:57.756Z,71.60
2018-03-11T11:51:23.845Z,70.50
2018-03-11T11:53:49.860Z,71.50
2018-03-11T11:56:16.591Z,79.50
2018-03-11T11:58:42.559Z,79.50
2018-03-11T12:01:09.256Z,80.90
2018-03-11T12:03:35.212Z,80.80
2018-03-11T12:06:01.159Z,81.40
2018-03-11T12:08:27.191Z,87.50
2018-03-11T12:10:53.304Z,89.40
2018-03-11T12:13:19.273Z,91.00
2018-03-11T12:15:45.405Z,86.20
2018-03-11T12:18:11.374Z,84.10
2018-03-11T12:20:37.329Z,84.80
2018-03-11T12:23:03.306Z,84.10
2018-03-11T12:25:30.018Z,85.00
2018-03-11T12:27:56.029Z,85.00
2018-03-11T12:30:22.733Z,83.80
2018-03-11T12:32:48.699Z,83.80
2018-03-11T12:35:15.405Z,82.70
2018-03-11T12:37:41.360Z,83.10
2018-03-11T12:40:07.373Z,83.20
2018-03-11T12:42:33.388Z,82.80
2018-03-11T12:44:59.340Z,83.70
2018-03-11T12:47:25.311Z,85.00
2018-03-11T12:49:51.275Z,82.70
2018-03-11T12:52:17.996Z,84.20
2018-03-11T12:54:43.961Z,84.20
2018-03-11T12:57:10.669Z,83.10
2018-03-11T12:59:36.640Z,83.10
2018-03-11T13:02:03.352Z,82.10
2018-03-11T13:04:29.434Z,81.90
2018-03-11T13:06:56.137Z,80.60
2018-03-11T13:09:22.245Z,80.50
2018-03-11T13:11:48.214Z,80.20
2018-03-11T13:14:14.198Z,80.00
2018-03-11T13:16:40.932Z,79.70
2018-03-11T13:19:06.899Z,79.70
2018-03-11T13:21:32.902Z,79.30
2018-03-11T13:24:00.346Z,77.40
2018-03-11T13:26:26.385Z,77.40
2018-03-11T13:28:52.363Z,76.80
2018-03-11T13:31:19.271Z,76.20
2018-03-11T13:33:57.787Z,76.30
2018-03-11T13:36:23.793Z,76.70
2018-03-11T13:39:03.092Z,75.80
2018-03-11T13:41:29.112Z,75.80
2018-03-11T13:43:55.197Z,76.00
2018-03-11T13:46:33.765Z,75.50
2018-03-11T13:48:59.724Z,76.60
2018-03-11T13:51:38.900Z,76.20
2018-03-11T13:54:04.868Z,76.20
2018-03-11T13:56:32.345Z,77.00
2018-03-11T13:58:58.372Z,77.00
2018-03-11T14:01:24.350Z,78.20
2018-03-11T14:03:51.048Z,78.00
2018-03-11T14:06:16.996Z,77.90
2018-03-11T14:08:42.996Z,76.90
2018-03-11T14:11:08.952Z,76.50
2018-03-11T14:13:35.065Z,76.40
2018-03-11T14:16:01.048Z,75.50
2018-03-11T14:18:27.066Z,76.10
2018-03-11T14:20:53.184Z,76.30
2018-03-11T14:23:19.172Z,76.10
2018-03-11T14:25:45.900Z,77.80
2018-03-11T14:28:11.865Z,77.50
2018-03-11T14:30:38.586Z,78.90
2018-03-11T14:33:04.630Z,78.90
2018-03-11T14:35:30.647Z,79.60
2018-03-11T14:37:56.748Z,80.10
2018-03-11T14:40:22.729Z,80.60
2018-03-11T14:42:48.729Z,81.30
2018-03-11T14:45:14.720Z,81.20
2018-03-11T14:47:41.417Z,81.10
2018-03-11T14:50:07.385Z,81.00
2018-03-11T14:52:33.352Z,80.90
2018-03-11T14:54:59.337Z,80.50
2018-03-11T14:57:25.368Z,79.60
2018-03-11T14:59:51.333Z,79.00
2018-03-11T15:02:18.045Z,78.70
2018-03-11T15:04:44.013Z,78.40
2018-03-11T15:07:09.973Z,77.60
2018-03-11T15:09:35.945Z,78.00
2018-03-11T15:12:01.959Z,78.30
2018-03-11T15:14:27.985Z,78.60
2018-03-11T15:16:53.913Z,79.20
2018-03-11T15:19:20.617Z,78.70
2018-03-11T15:21:46.569Z,78.80
2018-03-11T15:24:14.012Z,78.30
2018-03-11T15:26:39.985Z,78.20
2018-03-11T15:29:05.985Z,78.20
2018-03-11T15:31:31.957Z,79.10
2018-03-11T15:33:57.968Z,79.70
2018-03-11T15:36:23.940Z,79.70
2018-03-11T15:38:50.737Z,80.40
2018-03-11T15:41:16.693Z,80.30
2018-03-11T15:43:42.660Z,80.00
2018-03-11T15:46:09.369Z,80.60
2018-03-11T15:48:35.348Z,80.50
2018-03-11T15:51:01.324Z,81.90
2018-03-11T15:53:27.328Z,82.10
2018-03-11T15:55:54.065Z,82.90
2018-03-11T15:58:21.405Z,82.70
2018-03-11T16:00:47.368Z,82.90
2018-03-11T16:03:13.347Z,83.00
2018-03-11T16:05:39.316Z,83.10
2018-03-11T16:08:05.280Z,83.00
2018-03-11T16:10:31.275Z,83.10
2018-03-11T16:12:57.280Z,86.60
2018-03-11T16:15:23.248Z,92.10
2018-03-11T16:17:49.218Z,91.00
2018-03-11T16:20:15.935Z,92.10
2018-03-11T16:22:41.898Z,91.90
2018-03-11T16:25:07.861Z,90.80
2018-03-11T16:27:33.824Z,88.70
2018-03-11T16:29:59.851Z,87.70
2018-03-11T16:32:26.558Z,87.30
2018-03-11T16:34:52.524Z,87.30
2018-03-11T16:37:18.504Z,86.20
2018-03-11T16:39:44.469Z,86.00
2018-03-11T16:42:10.425Z,86.60
2018-03-11T16:44:37.150Z,87.10
2018-03-11T16:47:03.144Z,87.10
2018-03-11T16:49:29.136Z,87.40
2018-03-11T16:51:55.120Z,87.60
2018-03-11T16:54:21.088Z,87.30
2018-03-11T16:56:47.058Z,88.20
2018-03-11T16:59:13.769Z,88.70
2018-03-11T17:01:39.766Z,88.70
2018-03-11T17:04:05.779Z,88.60
2018-03-11T17:06:31.820Z,88.60
2018-03-11T17:08:57.781Z,89.10
2018-03-11T17:11:23.740Z,89.30
2018-03-11T17:13:49.720Z,89.30
2018-03-11T17:16:15.696Z,89.70
2018-03-11T17:18:41.672Z,89.50
2018-03-11T17:21:07.664Z,89.80
2018-03-11T17:23:33.643Z,90.20
2018-03-11T17:25:59.603Z,90.40
2018-03-11T17:28:26.317Z,90.60
2018-03-11T17:30:53.780Z,90.80
2018-03-11T17:33:19.752Z,90.70
2018-03-11T17:35:46.526Z,91.00
2018-03-11T17:38:12.493Z,91.00
2018-03-11T17:40:38.474Z,91.50
2018-03-11T17:43:05.241Z,92.00
2018-03-11T17:45:31.947Z,92.10
2018-03-11T17:47:57.943Z,92.10
2018-03-11T17:50:23.945Z,92.30
2018-03-11T17:52:49.905Z,92.40
2018-03-11T17:55:15.905Z,92.50
2018-03-11T17:57:41.876Z,92.60
2018-03-11T18:00:07.856Z,92.60
2018-03-11T18:02:33.834Z,92.10
2018-03-11T18:05:00.560Z,92.30
2018-03-11T18:07:27.273Z,92.30
2018-03-11T18:09:54.325Z,92.30
2018-03-11T18:12:20.297Z,91.80
2018-03-11T18:14:46.376Z,91.80
2018-03-11T18:17:13.080Z,90.60
2018-03-11T18:19:39.041Z,90.60
2018-03-11T18:22:05.134Z,90.20
2018-03-11T18:24:31.126Z,90.40
2018-03-11T18:26:57.092Z,90.50
2018-03-11T18:29:23.062Z,90.70
2018-03-11T18:31:49.019Z,90.40
2018-03-11T18:34:15.001Z,90.10
2018-03-11T18:36:40.973Z,90.20
2018-03-11T18:39:06.941Z,90.30
2018-03-11T18:41:33.641Z,90.70
2018-03-11T18:43:59.612Z,90.70
2018-03-11T18:46:25.572Z,90.90
2018-03-11T18:48:52.279Z,90.80
2018-03-11T18:51:18.266Z,91.10
2018-03-11T18:53:44.246Z,90.90
2018-03-11T18:56:10.211Z,90.90
2018-03-11T18:58:36.170Z,91.40
2018-03-11T19:01:02.909Z,92.30
2018-03-11T19:03:29.692Z,92.60
2018-03-11T19:05:55.737Z,92.50
2018-03-11T19:08:21.715Z,92.70
2018-03-11T19:10:47.689Z,92.90
2018-03-11T19:13:13.640Z,93.10
2018-03-11T19:15:39.621Z,93.10
2018-03-11T19:18:05.607Z,92.70
2018-03-11T19:20:31.613Z,92.80
2018-03-11T19:22:58.416Z,93.40
2018-03-11T19:25:24.392Z,93.40
2018-03-11T19:27:50.356Z,93.60
2018-03-11T19:30:16.320Z,93.50
2018-03-11T19:32:42.296Z,92.90
2018-03-11T19:35:08.309Z,93.00
2018-03-11T19:37:34.959Z,93.80
2018-03-11T19:40:00.972Z,93.70
2018-03-11T19:42:26.968Z,93.90
2018-03-11T19:44:53.656Z,93.90
2018-03-11T19:47:19.616Z,93.90
2018-03-11T19:49:45.579Z,94.00
2018-03-11T19:52:11.596Z,93.90
2018-03-11T19:54:37.560Z,94.10
2018-03-11T19:57:04.260Z,94.00
2018-03-11T19:59:30.248Z,93.90
2018-03-11T20:01:57.145Z,93.90
2018-03-11T20:04:23.197Z,93.90
2018-03-11T20:06:49.177Z,94.00
2018-03-11T20:09:15.891Z,94.20
2018-03-11T20:11:41.848Z,94.20
2018-03-11T20:14:07.812Z,94.20
2018-03-11T20:16:34.496Z,94.30
2018-03-11T20:19:01.249Z,94.20
2018-03-11T20:21:27.317Z,94.20
2018-03-11T20:23:53.297Z,94.30
2018-03-11T20:26:19.258Z,94.50
2018-03-11T20:28:45.244Z,94.60
2018-03-11T20:31:11.947Z,94.50
2018-03-11T20:33:37.913Z,94.40
2018-03-11T20:36:03.925Z,94.60
2018-03-11T20:38:29.991Z,94.80
2018-03-11T20:40:56.037Z,94.50
2018-03-11T20:43:22.783Z,94.70
2018-03-11T20:45:49.503Z,95.00
2018-03-11T20:48:15.485Z,94.70
2018-03-11T20:50:41.450Z,94.80
2018-03-11T20:53:07.413Z,95.10
2018-03-11T20:55:33.484Z,94.80
2018-03-11T20:57:59.556Z,94.70
2018-03-11T21:00:25.594Z,94.70
2018-03-11T21:02:51.556Z,94.90
2018-03-11T21:05:17.544Z,94.80
2018-03-11T21:07:44.232Z,95.00
2018-03-11T21:10:10.235Z,95.00
2018-03-11T21:12:37.000Z,94.80
2018-03-11T21:15:02.992Z,94.80
2018-03-11T21:17:30.402Z,94.40
2018-03-11T21:19:56.408Z,94.30
2018-03-11T21:22:22.369Z,94.50
2018-03-11T21:24:48.344Z,94.60
2018-03-11T21:27:14.303Z,94.50
2018-03-11T21:29:41.025Z,94.50
2018-03-11T21:32:06.999Z,94.50
2018-03-11T21:34:32.993Z,94.70
2018-03-11T21:36:59.101Z,94.60
2018-03-11T21:39:25.483Z,94.40
2018-03-11T21:41:51.444Z,94.50
2018-03-11T21:44:17.394Z,94.70
2018-03-11T21:46:43.362Z,94.60
2018-03-11T21:49:09.354Z,94.70
2018-03-11T21:51:35.405Z,94.60
2018-03-11T21:54:01.488Z,94.50
2018-03-11T21:56:27.489Z,94.60
2018-03-11T21:58:54.201Z,94.50
2018-03-11T22:01:20.181Z,94.50
2018-03-11T22:03:46.890Z,94.40
2018-03-11T22:06:13.230Z,94.40
2018-03-11T22:08:39.189Z,94.30
2018-03-11T22:11:05.161Z,94.40
2018-03-11T22:13:31.860Z,94.70
2018-03-11T22:15:57.855Z,94.70
2018-03-11T22:18:23.818Z,94.60
2018-03-11T22:20:49.776Z,94.40
2018-03-11T22:23:15.739Z,94.50
2018-03-11T22:25:42.456Z,94.70
2018-03-11T22:28:08.425Z,94.70
2018-03-11T22:30:35.141Z,95.00
2018-03-11T22:33:01.124Z,95.00
2018-03-11T22:35:27.869Z,95.10
2018-03-11T22:37:54.560Z,95.10
2018-03-11T22:40:20.532Z,95.10
2018-03-11T22:42:47.963Z,95.30
2018-03-11T22:45:13.932Z,95.30
2018-03-11T22:47:39.896Z,94.90
2018-03-11T22:50:06.676Z,94.80
2018-03-11T22:52:32.746Z,94.70
2018-03-11T22:54:58.753Z,94.70
2018-03-11T22:57:24.700Z,94.80
2018-03-11T22:59:50.673Z,94.70
2018-03-11T23:02:16.638Z,94.80
2018-03-11T23:04:42.595Z,94.70
2018-03-11T23:07:08.569Z,94.80
2018-03-11T23:09:34.536Z,94.50
2018-03-11T23:12:01.244Z,94.50
2018-03-11T23:14:27.229Z,94.50
2018-03-11T23:16:53.197Z,94.70
2018-03-11T23:19:21.085Z,94.90
2018-03-11T23:21:47.037Z,95.10
2018-03-11T23:24:12.998Z,95.00
2018-03-11T23:26:39.702Z,94.90
2018-03-11T23:29:05.673Z,94.90
2018-03-11T23:31:31.641Z,95.50
2018-03-11T23:33:57.609Z,95.10
2018-03-11T23:36:23.575Z,95.50
2018-03-11T23:38:49.521Z,95.50
2018-03-11T23:41:16.229Z,95.70
2018-03-11T23:43:42.198Z,95.70
2018-03-11T23:46:08.209Z,95.80
2018-03-11T23:48:34.169Z,96.00
2018-03-11T23:51:00.161Z,96.30
2018-03-11T23:53:26.126Z,96.30
2018-03-11T23:55:52.089Z,96.50
2018-03-11T23:58:18.787Z,96.80
